KBBB/BBB METAR and TAF weather

Enter ICAO airport designator
Station Type Date Time Source
KBBB METAR 2018/01/24 07:15 UTC NOAA

KBBB 240715Z AUTO 32005KT 10SM OVC014 M03/M06 A3020 RMK AO2


Station Type Date Time Source
KBBB Decoded METAR 2018/01/24 07:15 UTC NOAA

Benson Municipal, MN, United States (KBBB) 45-19N 095-39W
Jan 24, 2018 - 02:15 AM EST / 2018.01.24 0715 UTC
Wind: from the NW (320 degrees) at 6 MPH (5 KT):0
Visibility: 10 mile(s):0
Sky conditions: overcast
Temperature: 26 F (-3 C)
Windchill: 19 F (-7 C):1
Dew Point: 21 F (-6 C)
Relative Humidity: 79%
Pressure (altimeter): 30.2 in. Hg (1022 hPa)
ob: KBBB 240715Z AUTO 32005KT 10SM OVC014 M03/M06 A3020 RMK AO2
cycle: 7

Station Type Date Time Source
KBBB TAF UTC NOAA

Error!


Example: see airport list